Time;durP1;ratioP1;P1;durP2;ratioP2;P2;SDS_P1;SDS_P2;PMS_P1;PMS_P2;Temp;Humidity;BMP_temperature;BMP_pressure;BME280_temperature;BME280_humidity;BME280_pressure;Samples;Min_cycle;Max_cycle;Signal;HPM_P1;HPM_P2
2022/12/30 00:00:47;;;;;;;830.08;771.88;;;7.60;99.90;;;;;;5052417;28;20386;-61
2022/12/30 00:03:15;;;;;;;862.67;802.43;;;7.60;99.90;;;;;;5053000;28;20424;-56
2022/12/30 00:05:41;;;;;;;857.60;796.78;;;7.60;99.90;;;;;;5053080;28;20489;-60
2022/12/30 00:08:45;;;;;;;855.70;796.50;;;7.60;99.90;;;;;;5052062;28;20500;-61
2022/12/30 00:10:52;;;;;;;856.08;796.30;;;7.60;99.90;;;;;;5054201;28;20488;-60
2022/12/30 00:33:08;;;;;;;839.63;780.10;;;7.60;99.90;;;;;;5048470;28;20454;-59
2022/12/30 00:35:39;;;;;;;863.72;802.58;;;7.60;99.90;;;;;;5047852;28;20412;-60
2022/12/30 00:38:05;;;;;;;870.10;808.67;;;7.50;99.90;;;;;;5045294;28;20454;-59
2022/12/30 00:40:31;;;;;;;866.40;805.50;;;7.50;99.90;;;;;;5044448;28;20381;-59
2022/12/30 00:43:08;;;;;;;873.03;811.65;;;7.50;99.90;;;;;;5044176;28;20400;-60
2022/12/30 00:45:39;;;;;;;858.27;798.13;;;7.50;99.90;;;;;;5044794;28;20451;-58
2022/12/30 00:56:18;;;;;;;820.72;763.85;;;7.40;99.90;;;;;;5046462;28;20523;-59
2022/12/30 00:58:44;;;;;;;892.13;827.28;;;7.40;99.90;;;;;;5046000;28;20739;-59
2022/12/30 01:01:09;;;;;;;793.78;739.22;;;7.30;99.90;;;;;;5045860;28;20472;-60
2022/12/30 01:03:35;;;;;;;862.33;799.57;;;7.10;99.90;;;;;;5047203;28;20498;-60
2022/12/30 01:06:08;;;;;;;973.60;899.20;;;7.00;99.90;;;;;;5047445;28;20529;-61
2022/12/30 01:08:34;;;;;;;980.30;905.42;;;6.90;99.90;;;;;;5048997;28;20387;-61
2022/12/30 01:11:04;;;;;;;1066.50;983.17;;;6.90;99.90;;;;;;5049194;28;20385;-60
2022/12/30 01:13:29;;;;;;;1056.78;972.42;;;6.90;99.90;;;;;;5049633;28;20389;-60
2022/12/30 01:15:55;;;;;;;1037.37;953.97;;;6.80;99.90;;;;;;5050279;28;20439;-60
2022/12/30 01:18:23;;;;;;;1036.88;951.92;;;6.80;99.90;;;;;;5049674;28;21277;-61
2022/12/30 01:20:49;;;;;;;1047.95;963.03;;;6.80;99.90;;;;;;5051229;28;20416;-59
2022/12/30 01:23:15;;;;;;;1051.53;967.23;;;6.80;99.90;;;;;;5048148;28;20436;-60
2022/12/30 01:25:40;;;;;;;1083.38;995.92;;;6.80;99.90;;;;;;5049131;28;20439;-59
2022/12/30 01:28:06;;;;;;;1078.30;991.27;;;6.80;99.90;;;;;;5047996;28;20413;-58
2022/12/30 01:30:31;;;;;;;1095.60;999.90;;;6.80;99.90;;;;;;5048529;28;20398;-60
2022/12/30 01:32:57;;;;;;;1064.55;977.75;;;6.80;99.90;;;;;;5048420;28;20491;-59
2022/12/30 01:35:22;;;;;;;1077.27;989.13;;;6.80;99.90;;;;;;5044276;28;20530;-59
2022/12/30 01:37:48;;;;;;;1058.33;971.33;;;6.80;99.90;;;;;;5044058;28;20603;-58
2022/12/30 01:40:14;;;;;;;1012.08;931.28;;;6.80;99.90;;;;;;5046266;28;20380;-60
2022/12/30 01:42:40;;;;;;;1012.35;931.38;;;6.80;99.90;;;;;;5047287;28;20421;-60
2022/12/30 01:45:12;;;;;;;945.08;871.28;;;6.80;99.90;;;;;;5046145;28;20389;-59
2022/12/30 01:47:59;;;;;;;941.38;868.00;;;6.90;99.90;;;;;;5047668;28;20373;-60
2022/12/30 01:50:44;;;;;;;905.93;838.20;;;6.90;99.90;;;;;;5050384;28;20377;-60
2022/12/30 01:53:15;;;;;;;883.15;818.58;;;6.90;99.90;;;;;;5049363;28;20393;-60
2022/12/30 01:55:55;;;;;;;779.40;726.42;;;7.00;99.90;;;;;;5046733;28;20404;-59
2022/12/30 01:58:45;;;;;;;778.35;724.58;;;7.00;99.90;;;;;;5048231;28;20411;-59
2022/12/30 02:01:12;;;;;;;870.33;807.92;;;7.10;99.90;;;;;;5046194;28;20879;-60
2022/12/30 02:03:45;;;;;;;860.30;798.92;;;7.10;99.90;;;;;;5044940;28;20385;-60
2022/12/30 02:06:15;;;;;;;789.03;736.22;;;7.10;99.90;;;;;;5045572;28;20378;-59
2022/12/30 02:08:41;;;;;;;817.00;761.75;;;7.20;99.90;;;;;;5047172;28;20389;-61
2022/12/30 02:11:07;;;;;;;850.58;791.05;;;7.20;99.90;;;;;;5051610;28;20400;-60
2022/12/30 02:13:32;;;;;;;876.40;813.20;;;7.20;99.90;;;;;;5050212;28;20478;-60
2022/12/30 02:16:07;;;;;;;875.67;813.00;;;7.10;99.90;;;;;;5051482;28;20799;-59
2022/12/30 02:18:43;;;;;;;874.90;813.22;;;7.10;99.90;;;;;;5051132;28;20392;-59
2022/12/30 02:21:20;;;;;;;867.23;805.50;;;7.10;99.90;;;;;;5050752;28;20992;-61
2022/12/30 02:24:17;;;;;;;859.58;797.67;;;7.10;99.90;;;;;;5049401;28;20479;-60
2022/12/30 02:26:59;;;;;;;869.22;806.40;;;7.10;99.90;;;;;;5048968;28;20819;-60
2022/12/30 02:29:34;;;;;;;860.92;798.58;;;7.10;99.90;;;;;;5048915;28;20524;-58
2022/12/30 02:32:08;;;;;;;864.37;801.53;;;7.10;99.90;;;;;;5050158;28;20457;-58
2022/12/30 02:34:40;;;;;;;852.15;790.42;;;7.10;99.90;;;;;;5052972;28;20417;-60
2022/12/30 02:37:26;;;;;;;850.80;790.03;;;7.10;99.90;;;;;;5053104;28;20393;-58
2022/12/30 02:40:11;;;;;;;866.90;805.40;;;7.10;99.90;;;;;;5053343;28;20378;-60
2022/12/30 02:45:41;;;;;;;844.93;784.67;;;7.10;99.90;;;;;;5055804;28;20392;-58
2022/12/30 02:48:11;;;;;;;853.42;792.42;;;7.10;99.90;;;;;;5054848;28;20385;-60
2022/12/30 02:53:28;;;;;;;858.60;797.67;;;7.10;99.90;;;;;;5055702;28;20379;-60
2022/12/30 02:55:54;;;;;;;850.55;788.95;;;7.10;99.90;;;;;;5053612;28;20560;-58
2022/12/30 02:58:24;;;;;;;852.40;790.15;;;7.10;99.90;;;;;;5053171;28;20397;-62
2022/12/30 03:04:09;;;;;;;853.08;792.58;;;7.10;99.90;;;;;;5051750;28;20377;-55
2022/12/30 03:06:43;;;;;;;853.45;790.92;;;7.10;99.90;;;;;;5052494;28;20389;-59
2022/12/30 03:09:33;;;;;;;870.53;807.83;;;7.10;99.90;;;;;;5053854;28;20576;-58
2022/12/30 03:12:24;;;;;;;863.85;801.63;;;7.10;99.90;;;;;;5052382;28;20416;-58
2022/12/30 03:14:56;;;;;;;865.47;803.08;;;7.10;99.90;;;;;;5053711;28;20724;-58
2022/12/30 03:17:27;;;;;;;864.33;801.17;;;7.10;99.90;;;;;;5054932;28;20492;-58
2022/12/30 03:20:00;;;;;;;857.00;795.72;;;7.10;99.90;;;;;;5055229;28;20480;-58
2022/12/30 03:28:04;;;;;;;857.08;794.75;;;7.10;99.90;;;;;;5053376;28;20669;-59
2022/12/30 03:30:32;;;;;;;851.25;790.40;;;7.10;99.90;;;;;;5051485;28;20417;-59
2022/12/30 03:32:58;;;;;;;833.88;773.60;;;7.10;99.90;;;;;;5052060;28;20389;-59
2022/12/30 03:35:25;;;;;;;823.97;764.67;;;7.20;99.90;;;;;;5053119;28;20413;-57
2022/12/30 03:37:55;;;;;;;798.83;742.20;;;7.20;99.90;;;;;;5052260;28;20381;-57
2022/12/30 03:40:34;;;;;;;829.17;770.13;;;7.30;99.90;;;;;;5052209;28;20385;-58
2022/12/30 03:43:01;;;;;;;783.23;728.27;;;7.20;99.90;;;;;;5054340;28;20397;-59
2022/12/30 03:45:27;;;;;;;799.88;743.30;;;7.30;99.90;;;;;;5053840;28;20393;-59
2022/12/30 03:47:53;;;;;;;781.78;727.35;;;7.30;99.90;;;;;;5053379;28;20465;-57
2022/12/30 03:50:18;;;;;;;761.35;708.10;;;7.30;99.90;;;;;;5054393;28;20397;-59
2022/12/30 03:52:44;;;;;;;787.88;732.15;;;7.30;99.90;;;;;;5054713;28;20381;-59
2022/12/30 03:55:09;;;;;;;759.33;706.63;;;7.30;99.90;;;;;;5054532;28;20862;-59
2022/12/30 03:57:36;;;;;;;792.93;737.43;;;7.30;99.90;;;;;;5054610;28;20393;-57
2022/12/30 04:00:03;;;;;;;805.85;750.00;;;7.30;99.90;;;;;;5053889;28;20647;-58
2022/12/30 04:02:28;;;;;;;775.05;721.03;;;7.30;99.90;;;;;;5053729;28;20400;-59
2022/12/30 04:04:54;;;;;;;744.78;694.08;;;7.30;99.90;;;;;;5052417;28;20385;-57
2022/12/30 04:07:19;;;;;;;780.73;725.93;;;7.30;99.90;;;;;;5051184;28;20485;-59
2022/12/30 04:09:45;;;;;;;771.30;717.80;;;7.30;99.90;;;;;;5052162;28;20618;-59
2022/12/30 04:12:10;;;;;;;745.00;693.78;;;7.30;99.90;;;;;;5052780;28;20421;-57
2022/12/30 04:14:36;;;;;;;739.90;688.60;;;7.40;99.90;;;;;;5053778;28;20515;-56
2022/12/30 04:17:01;;;;;;;773.60;720.37;;;7.30;99.90;;;;;;5052689;28;20712;-59
2022/12/30 04:20:20;;;;;;;757.97;705.83;;;7.30;99.90;;;;;;5055069;28;20789;-57
2022/12/30 04:22:45;;;;;;;714.88;667.08;;;7.40;99.90;;;;;;5054707;28;20377;-54
2022/12/30 04:25:11;;;;;;;697.37;650.77;;;7.40;99.90;;;;;;5053725;28;20385;-55
2022/12/30 04:27:36;;;;;;;687.60;641.50;;;7.40;99.90;;;;;;5053350;28;20389;-58
2022/12/30 04:30:02;;;;;;;688.15;643.60;;;7.40;99.90;;;;;;5052995;28;20389;-59
2022/12/30 04:32:28;;;;;;;671.27;628.27;;;7.40;99.90;;;;;;5052657;28;20396;-55
2022/12/30 04:34:53;;;;;;;706.30;660.30;;;7.40;99.90;;;;;;5054506;28;21067;-57
2022/12/30 04:37:19;;;;;;;711.80;665.10;;;7.40;99.90;;;;;;5054778;28;20488;-58
2022/12/30 04:39:44;;;;;;;707.10;660.83;;;7.40;99.90;;;;;;5053857;28;20408;-59
2022/12/30 04:42:10;;;;;;;703.97;657.63;;;7.40;99.90;;;;;;5054380;28;20662;-59
2022/12/30 04:44:35;;;;;;;721.20;673.83;;;7.40;99.90;;;;;;5052875;28;20488;-58
2022/12/30 04:47:01;;;;;;;730.85;682.58;;;7.40;99.90;;;;;;5052497;28;20657;-59
2022/12/30 04:49:26;;;;;;;711.50;664.57;;;7.40;99.90;;;;;;5052383;28;20446;-59
2022/12/30 04:51:52;;;;;;;726.80;678.67;;;7.40;99.90;;;;;;5051592;28;20388;-59
2022/12/30 04:54:17;;;;;;;723.72;676.45;;;7.50;99.90;;;;;;5051416;28;20381;-59
2022/12/30 04:56:43;;;;;;;724.30;677.08;;;7.50;99.90;;;;;;5051188;28;20447;-57
2022/12/30 04:59:08;;;;;;;717.73;671.27;;;7.50;99.90;;;;;;5051581;28;20416;-59
2022/12/30 05:01:34;;;;;;;719.07;671.93;;;7.50;99.90;;;;;;5051302;28;20433;-59
2022/12/30 05:03:59;;;;;;;703.75;658.40;;;7.50;99.90;;;;;;5051072;28;20786;-60
2022/12/30 05:06:25;;;;;;;730.00;682.23;;;7.50;99.90;;;;;;5051944;28;20400;-63
2022/12/30 05:08:50;;;;;;;702.73;657.10;;;7.50;99.90;;;;;;5053112;28;20796;-59
2022/12/30 05:11:16;;;;;;;700.63;654.88;;;7.60;99.90;;;;;;5052799;28;20393;-59
2022/12/30 05:13:41;;;;;;;689.90;645.47;;;7.50;99.90;;;;;;5049381;28;20429;-58
2022/12/30 05:16:07;;;;;;;704.73;659.20;;;7.50;99.90;;;;;;5047608;28;20486;-59
2022/12/30 05:18:32;;;;;;;705.90;659.88;;;7.50;99.90;;;;;;5045516;28;20971;-59
2022/12/30 05:20:58;;;;;;;706.00;659.33;;;7.50;99.90;;;;;;5044660;28;20385;-59
2022/12/30 05:26:14;;;;;;;705.05;659.17;;;7.50;99.90;;;;;;5044760;28;20526;-57
2022/12/30 05:28:40;;;;;;;687.83;643.03;;;7.50;99.90;;;;;;5044356;28;20488;-58
2022/12/30 05:31:05;;;;;;;717.00;670.47;;;7.50;99.90;;;;;;5049813;28;20386;-58
2022/12/30 05:33:31;;;;;;;707.87;661.50;;;7.50;99.90;;;;;;5050027;28;20429;-58
2022/12/30 05:35:56;;;;;;;729.60;681.30;;;7.50;99.90;;;;;;5049417;28;20688;-58
2022/12/30 05:38:22;;;;;;;700.15;653.80;;;7.50;99.90;;;;;;5049468;28;20405;-58
2022/12/30 05:40:49;;;;;;;711.80;664.97;;;7.50;99.90;;;;;;5048327;28;20677;-59
2022/12/30 05:43:14;;;;;;;717.60;670.35;;;7.50;99.90;;;;;;5048767;28;20397;-58
2022/12/30 05:45:40;;;;;;;705.73;658.67;;;7.40;99.90;;;;;;5055112;28;20562;-58
2022/12/30 05:48:05;;;;;;;724.20;676.47;;;7.40;99.90;;;;;;5054535;28;20396;-58
2022/12/30 05:50:31;;;;;;;716.37;668.73;;;7.40;99.90;;;;;;5055957;28;20684;-57
2022/12/30 05:52:57;;;;;;;712.00;664.67;;;7.40;99.90;;;;;;5056253;28;20392;-57
2022/12/30 05:55:22;;;;;;;700.10;655.07;;;7.40;99.90;;;;;;5054077;28;20736;-59
2022/12/30 05:57:47;;;;;;;729.93;681.10;;;7.40;99.90;;;;;;5054153;28;20467;-59
2022/12/30 06:00:14;;;;;;;703.58;657.15;;;7.40;99.90;;;;;;5054116;28;20397;-59
2022/12/30 06:02:39;;;;;;;680.55;635.95;;;7.30;99.90;;;;;;5053568;28;20401;-58
2022/12/30 06:05:05;;;;;;;706.22;660.08;;;7.30;99.90;;;;;;5052885;28;20381;-59
2022/12/30 06:07:31;;;;;;;724.95;677.42;;;7.30;99.90;;;;;;5052505;28;20382;-58
2022/12/30 06:09:56;;;;;;;700.38;655.38;;;7.30;99.90;;;;;;5053027;28;20527;-57
2022/12/30 06:12:22;;;;;;;730.90;682.10;;;7.30;99.90;;;;;;5051469;28;20409;-58
2022/12/30 06:14:47;;;;;;;719.23;671.77;;;7.20;99.90;;;;;;5052512;28;20475;-58
2022/12/30 06:17:13;;;;;;;726.65;678.95;;;7.20;99.90;;;;;;5050976;28;20409;-58
2022/12/30 06:19:38;;;;;;;732.67;684.05;;;7.20;99.90;;;;;;5052640;28;20581;-57
2022/12/30 06:22:04;;;;;;;731.57;683.20;;;7.10;99.90;;;;;;5052757;28;20804;-57
2022/12/30 06:24:29;;;;;;;762.57;711.37;;;7.10;99.90;;;;;;5052907;28;20416;-59
2022/12/30 06:26:55;;;;;;;766.20;714.55;;;7.00;99.90;;;;;;5053523;28;20393;-59
2022/12/30 06:29:20;;;;;;;727.10;679.80;;;7.00;99.90;;;;;;5052841;28;20412;-58
2022/12/30 06:31:46;;;;;;;748.23;697.73;;;7.10;99.90;;;;;;5050315;28;20558;-58
2022/12/30 06:34:11;;;;;;;752.60;702.53;;;7.00;99.90;;;;;;5048801;28;20386;-58
2022/12/30 06:36:37;;;;;;;762.63;711.72;;;7.10;99.90;;;;;;5048143;28;20504;-58
2022/12/30 06:39:02;;;;;;;753.83;703.83;;;7.00;99.90;;;;;;5049144;28;20673;-58
2022/12/30 06:41:28;;;;;;;748.10;699.30;;;6.90;99.90;;;;;;5050172;28;20388;-54
2022/12/30 06:43:53;;;;;;;768.85;718.05;;;6.90;99.90;;;;;;5050291;28;20812;-58
2022/12/30 06:46:19;;;;;;;749.23;699.27;;;6.90;99.90;;;;;;5050691;28;20488;-55
2022/12/30 06:48:44;;;;;;;741.47;692.07;;;6.90;99.90;;;;;;5049753;28;20400;-57
2022/12/30 06:51:10;;;;;;;775.80;724.03;;;6.90;99.90;;;;;;5050456;28;20413;-56
2022/12/30 06:53:35;;;;;;;757.97;707.10;;;6.80;99.90;;;;;;5049899;28;20381;-54
2022/12/30 06:56:01;;;;;;;760.17;709.13;;;6.70;99.90;;;;;;5045963;28;20408;-56
2022/12/30 06:58:27;;;;;;;746.97;697.83;;;6.70;99.90;;;;;;5047311;28;20527;-56
2022/12/30 07:00:53;;;;;;;759.45;708.78;;;6.70;99.90;;;;;;5046885;28;20402;-58
2022/12/30 07:03:19;;;;;;;757.63;706.73;;;6.60;99.90;;;;;;5047606;28;20381;-58
2022/12/30 07:05:45;;;;;;;780.28;727.78;;;6.60;99.90;;;;;;5049170;28;20395;-52
2022/12/30 07:08:10;;;;;;;779.08;727.05;;;6.60;99.90;;;;;;5048750;28;20381;-57
2022/12/30 07:10:36;;;;;;;801.17;747.20;;;6.60;99.90;;;;;;5049960;28;20447;-58
2022/12/30 07:13:02;;;;;;;779.43;726.77;;;6.60;99.90;;;;;;5049115;28;20436;-58
2022/12/30 07:15:27;;;;;;;778.33;725.83;;;6.50;99.90;;;;;;5049387;28;20474;-57
2022/12/30 07:17:52;;;;;;;785.85;732.25;;;6.50;99.90;;;;;;5046704;28;20404;-56
2022/12/30 07:20:18;;;;;;;781.67;728.80;;;6.60;99.90;;;;;;5046946;28;20381;-59
2022/12/30 07:22:44;;;;;;;775.63;722.63;;;6.50;99.90;;;;;;5046191;28;20933;-59
2022/12/30 07:25:10;;;;;;;770.33;718.27;;;6.50;99.90;;;;;;5045974;28;20421;-59
2022/12/30 07:27:36;;;;;;;774.43;721.80;;;6.50;99.90;;;;;;5046329;28;20500;-59
2022/12/30 07:30:02;;;;;;;764.40;713.20;;;6.50;99.90;;;;;;5047730;28;20393;-60
2022/12/30 07:32:28;;;;;;;740.55;692.33;;;6.50;99.90;;;;;;5046880;28;20393;-59
2022/12/30 07:34:53;;;;;;;740.20;690.70;;;6.50;99.90;;;;;;5046805;28;20777;-58
2022/12/30 07:37:19;;;;;;;752.20;702.35;;;6.50;99.90;;;;;;5046478;28;20392;-57
2022/12/30 07:39:45;;;;;;;768.07;716.20;;;6.50;99.90;;;;;;5046366;28;20381;-57
2022/12/30 07:42:10;;;;;;;763.70;712.40;;;6.50;99.90;;;;;;5045083;28;20381;-57
2022/12/30 07:44:37;;;;;;;771.73;720.43;;;6.50;99.90;;;;;;5044176;28;20398;-55
2022/12/30 07:47:03;;;;;;;795.40;741.22;;;6.50;99.90;;;;;;5043850;28;20442;-59
2022/12/30 07:49:29;;;;;;;767.63;716.05;;;6.40;99.90;;;;;;5045404;28;20394;-59
2022/12/30 07:51:54;;;;;;;786.40;733.53;;;6.50;99.90;;;;;;5045485;28;20655;-59
2022/12/30 07:54:20;;;;;;;772.23;720.20;;;6.40;99.90;;;;;;5044183;28;20527;-56
2022/12/30 07:56:46;;;;;;;798.33;744.22;;;6.40;99.90;;;;;;5045017;28;20404;-58
2022/12/30 07:59:12;;;;;;;782.55;728.95;;;6.40;99.90;;;;;;5043248;28;20463;-58
2022/12/30 08:01:38;;;;;;;776.55;723.17;;;6.40;99.90;;;;;;5043491;28;20654;-59
2022/12/30 08:04:03;;;;;;;792.05;736.97;;;6.40;99.90;;;;;;5041565;28;20385;-57
2022/12/30 08:06:29;;;;;;;786.05;731.70;;;6.40;99.90;;;;;;5037243;28;20451;-56
2022/12/30 08:08:54;;;;;;;773.43;719.50;;;6.40;99.90;;;;;;5037054;28;20440;-59
2022/12/30 08:11:20;;;;;;;803.05;747.10;;;6.40;99.90;;;;;;5038277;28;20713;-57
2022/12/30 08:13:46;;;;;;;806.30;749.53;;;6.40;99.90;;;;;;5038279;28;20523;-57
2022/12/30 08:16:16;;;;;;;792.87;736.57;;;6.30;99.90;;;;;;5040246;28;20443;-59
2022/12/30 08:18:42;;;;;;;792.72;737.95;;;6.30;99.90;;;;;;5041024;28;20389;-57
2022/12/30 08:21:11;;;;;;;793.33;738.50;;;6.30;99.90;;;;;;5039660;28;20472;-58
2022/12/30 08:23:37;;;;;;;787.28;732.22;;;6.30;99.90;;;;;;5037474;28;20815;-55
2022/12/30 08:26:08;;;;;;;790.15;734.30;;;6.30;99.90;;;;;;5038248;28;20693;-59
2022/12/30 08:28:35;;;;;;;771.63;717.70;;;6.30;99.90;;;;;;5036385;28;20389;-59
2022/12/30 08:31:13;;;;;;;813.88;757.60;;;6.30;99.90;;;;;;5035271;28;20728;-59
2022/12/30 08:33:39;;;;;;;784.25;729.75;;;6.30;99.90;;;;;;5035061;28;20385;-57
2022/12/30 08:36:08;;;;;;;800.58;744.67;;;6.20;99.90;;;;;;5035195;28;20405;-56
2022/12/30 08:38:36;;;;;;;787.70;732.83;;;6.20;99.90;;;;;;5035250;28;20406;-59
2022/12/30 08:41:07;;;;;;;760.25;707.17;;;6.20;99.90;;;;;;5034023;28;20458;-58
2022/12/30 08:43:33;;;;;;;791.08;735.53;;;6.20;99.90;;;;;;5033495;28;20655;-59
2022/12/30 08:45:58;;;;;;;781.97;727.28;;;6.20;99.90;;;;;;5035929;28;20437;-59
2022/12/30 08:48:24;;;;;;;767.63;714.10;;;6.20;99.90;;;;;;5036724;28;20727;-60
2022/12/30 08:50:53;;;;;;;760.10;707.17;;;6.20;99.90;;;;;;5037768;28;20396;-58
2022/12/30 08:53:18;;;;;;;765.40;712.40;;;6.30;99.90;;;;;;5039477;28;20381;-59
2022/12/30 08:55:44;;;;;;;768.23;714.43;;;6.30;99.90;;;;;;5038092;28;20401;-54
2022/12/30 08:58:09;;;;;;;785.13;731.10;;;6.30;99.90;;;;;;5039576;28;20440;-56
2022/12/30 09:00:36;;;;;;;785.22;730.35;;;6.20;99.90;;;;;;5040163;28;20775;-56
2022/12/30 09:03:02;;;;;;;767.33;713.60;;;6.30;99.90;;;;;;5039795;28;20377;-59
2022/12/30 09:05:28;;;;;;;764.70;710.85;;;6.30;99.90;;;;;;5035358;28;20378;-60
2022/12/30 09:07:54;;;;;;;742.20;690.43;;;6.40;99.90;;;;;;5035593;28;20383;-60
2022/12/30 09:10:20;;;;;;;769.03;715.73;;;6.40;99.90;;;;;;5034820;28;20688;-58
2022/12/30 09:12:45;;;;;;;783.43;728.67;;;6.50;99.90;;;;;;5036164;28;20428;-56
2022/12/30 09:15:11;;;;;;;757.40;705.10;;;6.50;99.90;;;;;;5033148;28;20809;-59
2022/12/30 09:17:37;;;;;;;735.37;685.03;;;6.60;99.90;;;;;;5035113;28;20701;-57
2022/12/30 09:20:03;;;;;;;691.00;645.37;;;6.80;99.90;;;;;;5033909;28;20866;-60
2022/12/30 09:22:28;;;;;;;667.58;623.80;;;7.00;99.90;;;;;;5034113;28;20804;-58
2022/12/30 09:24:54;;;;;;;689.37;644.50;;;7.20;99.90;;;;;;5036016;28;20397;-59
2022/12/30 09:27:19;;;;;;;651.67;609.78;;;7.40;99.90;;;;;;5037157;28;20407;-59
2022/12/30 09:29:45;;;;;;;659.20;616.40;;;7.50;99.90;;;;;;5038134;28;20546;-55
2022/12/30 09:32:10;;;;;;;669.40;626.50;;;7.60;99.90;;;;;;5040297;28;20832;-56
2022/12/30 09:34:36;;;;;;;700.00;654.67;;;7.70;99.90;;;;;;5039141;28;20865;-58
2022/12/30 09:37:02;;;;;;;702.80;657.10;;;7.50;99.90;;;;;;5040444;28;20405;-56
2022/12/30 09:39:31;;;;;;;696.53;651.10;;;7.30;99.90;;;;;;5041266;28;20676;-57
2022/12/30 09:45:11;;;;;;;679.63;635.42;;;7.20;99.90;;;;;;5039303;28;20680;-56
2022/12/30 09:47:46;;;;;;;663.55;620.28;;;7.10;99.90;;;;;;5037166;28;20392;-59
2022/12/30 09:50:32;;;;;;;675.88;631.88;;;7.00;99.90;;;;;;5036316;28;20909;-56
2022/12/30 09:53:17;;;;;;;672.95;629.15;;;7.00;99.90;;;;;;5033919;28;20727;-58
2022/12/30 09:55:59;;;;;;;667.07;624.07;;;7.00;99.90;;;;;;5033952;28;20432;-59
2022/12/30 09:58:34;;;;;;;676.35;632.33;;;7.00;99.90;;;;;;5036221;28;20395;-59
2022/12/30 10:01:23;;;;;;;671.42;628.53;;;7.00;99.90;;;;;;5036749;28;20458;-59
2022/12/30 10:03:51;;;;;;;652.00;610.93;;;7.00;99.90;;;;;;5036383;28;20472;-58
2022/12/30 10:06:22;;;;;;;665.33;623.37;;;7.10;99.90;;;;;;5036035;28;20381;-59
2022/12/30 10:09:00;;;;;;;694.28;649.70;;;7.10;99.90;;;;;;5039467;28;20651;-58
2022/12/30 10:11:47;;;;;;;673.88;630.15;;;7.10;99.90;;;;;;5040860;28;20381;-58
2022/12/30 10:14:30;;;;;;;675.25;631.75;;;7.10;99.90;;;;;;5038597;28;20833;-57
2022/12/30 10:17:07;;;;;;;670.60;628.22;;;7.10;99.90;;;;;;5038421;28;20829;-56
2022/12/30 10:19:39;;;;;;;678.83;635.05;;;7.10;99.90;;;;;;5037945;28;20377;-59
2022/12/30 10:22:24;;;;;;;683.10;639.33;;;7.10;99.90;;;;;;5034154;28;20752;-59
2022/12/30 10:25:18;;;;;;;706.90;660.83;;;7.20;99.90;;;;;;5034672;28;20409;-57
2022/12/30 10:27:49;;;;;;;639.83;599.85;;;7.20;99.90;;;;;;5036850;28;20393;-59
2022/12/30 10:30:21;;;;;;;654.42;613.13;;;7.20;99.90;;;;;;5043815;28;20389;-58
2022/12/30 10:33:04;;;;;;;692.87;647.33;;;7.30;99.90;;;;;;5044000;28;20396;-58
2022/12/30 10:35:31;;;;;;;660.58;618.17;;;7.30;99.90;;;;;;5043197;28;20385;-59
2022/12/30 10:38:18;;;;;;;664.90;621.50;;;7.30;99.90;;;;;;5041907;28;20804;-59
2022/12/30 10:41:12;;;;;;;665.15;622.53;;;7.40;99.90;;;;;;5044120;28;20386;-57
2022/12/30 10:44:14;;;;;;;679.00;635.22;;;7.40;99.90;;;;;;5045781;28;20393;-58
2022/12/30 10:47:03;;;;;;;660.17;618.05;;;7.50;99.90;;;;;;5044480;28;20393;-59
2022/12/30 10:49:56;;;;;;;641.88;600.78;;;7.50;99.90;;;;;;5047882;28;20385;-59
2022/12/30 10:52:22;;;;;;;678.70;635.77;;;7.50;99.90;;;;;;5046601;28;20507;-60
2022/12/30 10:54:48;;;;;;;663.17;621.30;;;7.60;99.90;;;;;;5039693;28;20707;-60
2022/12/30 10:57:31;;;;;;;690.97;646.78;;;7.60;99.90;;;;;;5044755;28;20405;-56
2022/12/30 10:59:57;;;;;;;692.35;647.85;;;7.80;99.90;;;;;;5047434;28;20439;-57
2022/12/30 11:02:31;;;;;;;705.90;659.97;;;7.90;99.90;;;;;;5047700;28;20423;-59
2022/12/30 11:04:59;;;;;;;735.80;688.40;;;8.00;99.90;;;;;;5046289;28;20382;-60
2022/12/30 11:07:25;;;;;;;723.70;678.53;;;8.00;99.90;;;;;;5044923;28;20470;-60
2022/12/30 11:09:50;;;;;;;737.55;690.25;;;8.00;99.90;;;;;;5045563;28;21132;-60
2022/12/30 11:15:16;;;;;;;727.67;680.63;;;8.00;99.90;;;;;;5040213;28;20447;-61
2022/12/30 11:17:51;;;;;;;755.83;707.58;;;7.90;99.90;;;;;;5043078;28;20401;-61
2022/12/30 11:20:27;;;;;;;751.42;703.17;;;7.90;99.90;;;;;;5042264;28;20455;-60
2022/12/30 11:22:55;;;;;;;745.55;698.45;;;7.80;99.90;;;;;;5046896;28;20382;-61
2022/12/30 11:25:27;;;;;;;739.97;693.22;;;;;;;;;;5047740;28;21074;-60
2022/12/30 11:27:57;;;;;;;746.97;699.35;;;;;;;;;;5048889;28;20404;-58
2022/12/30 11:30:26;;;;;;;722.80;677.75;;;;;;;;;;5048840;28;20396;-59
2022/12/30 11:32:53;;;;;;;737.10;690.95;;;;;;;;;;5047137;28;20380;-59
2022/12/30 11:35:58;;;;;;;706.65;663.38;;;;;;;;;;5045138;28;20381;-58
2022/12/30 11:38:30;;;;;;;723.75;678.30;;;;;;;;;;4986274;28;20455;-59
2022/12/30 11:40:56;;;;;;;677.15;637.03;;;;;;;;;;4985795;28;20691;-59
2022/12/30 11:43:22;;;;;;;658.75;619.90;;;;;;;;;;5013681;28;20386;-59
2022/12/30 11:45:54;;;;;;;655.83;615.80;;;8.00;99.90;;;;;;5044040;28;20760;-59
2022/12/30 11:48:33;;;;;;;664.83;625.80;;;8.00;99.90;;;;;;5045978;28;20381;-59
2022/12/30 11:51:01;;;;;;;672.78;631.97;;;8.00;99.90;;;;;;5047739;28;20419;-59
2022/12/30 11:53:30;;;;;;;641.72;604.67;;;8.10;99.90;;;;;;5048509;28;20389;-61
2022/12/30 11:55:56;;;;;;;593.17;559.22;;;8.10;99.90;;;;;;5048224;28;20401;-58
2022/12/30 11:58:22;;;;;;;627.87;591.33;;;8.10;99.90;;;;;;5046075;28;20732;-59
2022/12/30 12:00:57;;;;;;;581.47;548.23;;;8.10;99.90;;;;;;5040689;28;20801;-59
2022/12/30 12:03:26;;;;;;;620.67;584.83;;;8.00;99.90;;;;;;5043086;28;20480;-58
2022/12/30 12:06:07;;;;;;;630.78;594.10;;;8.00;99.90;;;;;;5040587;28;20389;-58
2022/12/30 12:09:10;;;;;;;583.70;549.72;;;7.90;99.90;;;;;;5040962;28;20392;-59
2022/12/30 12:11:43;;;;;;;614.45;579.20;;;7.90;99.90;;;;;;5003824;28;20388;-59
2022/12/30 12:14:22;;;;;;;595.60;561.58;;;8.00;99.90;;;;;;5036897;28;20424;-59
2022/12/30 12:16:52;;;;;;;585.42;552.60;;;8.00;99.90;;;;;;5036535;28;20510;-59
2022/12/30 12:19:34;;;;;;;579.05;546.72;;;8.10;99.90;;;;;;5037343;28;20859;-58
2022/12/30 12:22:04;;;;;;;597.33;563.60;;;8.00;99.90;;;;;;5038189;28;20441;-59
2022/12/30 12:24:40;;;;;;;555.97;525.35;;;8.00;99.90;;;;;;5038743;28;20401;-59
2022/12/30 12:27:13;;;;;;;492.35;466.20;;;8.20;99.90;;;;;;5040090;28;20463;-59
2022/12/30 12:29:39;;;;;;;487.83;461.75;;;;;;;;;;5043432;28;20500;-59
2022/12/30 12:32:24;;;;;;;461.70;437.60;;;;;;;;;;5044190;28;20831;-59
2022/12/30 12:35:06;;;;;;;469.70;445.27;;;;;;;;;;5045546;28;20381;-59
2022/12/30 12:37:32;;;;;;;435.80;413.48;;;;;;;;;;5043853;28;20916;-57
2022/12/30 12:40:09;;;;;;;451.75;428.17;;;;;;;;;;5041298;28;20492;-59
2022/12/30 12:42:44;;;;;;;422.45;400.92;;;;;;;;;;5043504;28;21000;-59
2022/12/30 12:45:24;;;;;;;409.77;388.87;;;;;;;;;;5039550;28;20445;-58
2022/12/30 12:47:56;;;;;;;411.55;390.73;;;;;;;;;;5036874;28;20381;-59
2022/12/30 12:50:22;;;;;;;416.98;395.95;;;;;;;;;;5038947;28;20373;-59
2022/12/30 12:52:54;;;;;;;385.83;366.27;;;;;;;;;;5039865;28;20374;-59
2022/12/30 12:55:26;;;;;;;397.87;377.57;;;;;;;;;;5040589;28;20447;-59
2022/12/30 12:57:58;;;;;;;437.13;414.65;;;;;;;;;;5041153;28;20643;-58
2022/12/30 13:00:29;;;;;;;427.15;405.52;;;;;;;;;;5042995;28;20460;-57
2022/12/30 13:02:58;;;;;;;431.08;409.15;;;;;;;;;;5042596;28;20445;-58
2022/12/30 13:05:42;;;;;;;426.10;404.17;;;;;;;;;;5043052;28;20473;-58
2022/12/30 13:08:08;;;;;;;454.25;431.13;;;;;;;;;;5044547;28;20811;-58
2022/12/30 13:10:37;;;;;;;451.88;428.73;;;;;;;;;;5043126;28;20922;-58
2022/12/30 13:13:27;;;;;;;435.35;413.42;;;;;;;;;;5042133;28;20409;-58
2022/12/30 13:16:00;;;;;;;455.10;432.20;;;;;;;;;;5044924;28;20836;-58
2022/12/30 13:18:27;;;;;;;461.10;437.45;;;;;;;;;;5044360;28;20381;-58
2022/12/30 13:20:59;;;;;;;471.90;447.70;;;;;;;;;;5062151;28;20515;-58
2022/12/30 13:23:27;;;;;;;457.20;433.90;;;;;;;;;;5063256;28;20476;-59
2022/12/30 13:25:58;;;;;;;473.02;448.33;;;;;;;;;;5046246;28;20384;-59
2022/12/30 13:28:27;;;;;;;466.85;443.10;;;;;;;;;;5062681;28;20393;-59
2022/12/30 13:30:59;;;;;;;449.17;426.40;;;;;;;;;;5045645;28;20557;-59